createdAt,value
2023-05-03T00:00:21.300Z,8.85
2023-05-03T00:02:48.226Z,8.86
2023-05-03T00:05:15.370Z,8.87
2023-05-03T00:07:43.884Z,8.86
2023-05-03T00:10:16.801Z,8.85
2023-05-03T00:12:44.600Z,8.86
2023-05-03T00:15:11.802Z,8.83
2023-05-03T00:17:38.820Z,8.83
2023-05-03T00:20:07.274Z,8.86
2023-05-03T00:22:34.710Z,8.87
2023-05-03T00:25:01.854Z,8.83
2023-05-03T00:27:29.200Z,8.85
2023-05-03T00:29:56.328Z,8.85
2023-05-03T00:32:23.522Z,8.86
2023-05-03T00:34:55.019Z,8.85
2023-05-03T00:37:23.256Z,8.83
2023-05-03T00:39:50.166Z,8.86
2023-05-03T00:42:18.251Z,8.85
2023-05-03T00:44:45.168Z,8.83
2023-05-03T00:47:12.697Z,8.85
2023-05-03T00:49:39.836Z,8.83
2023-05-03T00:52:07.034Z,8.83
2023-05-03T00:54:35.469Z,8.81
2023-05-03T00:57:04.980Z,8.79
2023-05-03T00:59:34.493Z,8.80
2023-05-03T01:02:02.101Z,8.78
2023-05-03T01:04:29.637Z,8.76
2023-05-03T01:07:12.787Z,8.79
2023-05-03T01:09:53.521Z,8.76
2023-05-03T01:12:49.781Z,8.74
2023-05-03T01:16:04.664Z,8.72
2023-05-03T01:18:36.354Z,8.70
2023-05-03T01:21:05.324Z,8.72
2023-05-03T01:23:54.561Z,8.71
2023-05-03T01:26:23.278Z,8.67
2023-05-03T01:28:50.830Z,8.66
2023-05-03T01:31:33.985Z,8.66
2023-05-03T01:34:14.595Z,8.66
2023-05-03T01:36:44.350Z,8.64
2023-05-03T01:39:23.514Z,8.65
2023-05-03T01:41:54.142Z,8.63
2023-05-03T01:44:22.912Z,8.62
2023-05-03T01:46:50.520Z,8.60
2023-05-03T01:49:17.621Z,8.58
2023-05-03T01:51:44.519Z,8.57
2023-05-03T01:54:11.468Z,8.55
2023-05-03T01:56:38.264Z,8.58
2023-05-03T01:59:05.332Z,8.58
2023-05-03T02:01:32.345Z,8.59
2023-05-03T02:03:59.398Z,8.60
2023-05-03T02:06:26.612Z,8.58
2023-05-03T02:08:54.480Z,8.59
2023-05-03T02:11:21.676Z,8.57
2023-05-03T02:13:55.900Z,8.58
2023-05-03T02:16:23.503Z,8.55
2023-05-03T02:18:52.014Z,8.56
2023-05-03T02:21:18.873Z,8.58
2023-05-03T02:23:45.740Z,8.57
2023-05-03T02:26:12.713Z,8.56
2023-05-03T02:28:39.642Z,8.57
2023-05-03T02:31:06.898Z,8.57
2023-05-03T02:33:33.819Z,8.57
2023-05-03T02:36:00.977Z,8.55
2023-05-03T02:38:28.047Z,8.55
2023-05-03T02:40:56.061Z,8.51
2023-05-03T02:43:23.671Z,8.51
2023-05-03T02:45:50.802Z,8.50
2023-05-03T02:48:18.317Z,8.48
2023-05-03T02:50:45.333Z,8.47
2023-05-03T02:53:12.578Z,8.46
2023-05-03T02:55:40.374Z,8.46
2023-05-03T02:58:07.658Z,8.44
2023-05-03T03:00:34.694Z,8.41
2023-05-03T03:03:01.686Z,8.42
2023-05-03T03:05:28.826Z,8.42
2023-05-03T03:07:56.557Z,8.41
2023-05-03T03:10:23.977Z,8.42
2023-05-03T03:12:50.906Z,8.42
2023-05-03T03:15:31.967Z,8.42
2023-05-03T03:17:58.819Z,8.42
2023-05-03T03:20:26.316Z,8.43
2023-05-03T03:22:53.313Z,8.41
2023-05-03T03:25:20.894Z,8.39
2023-05-03T03:27:47.984Z,8.38
2023-05-03T03:30:15.290Z,8.35
2023-05-03T03:32:53.376Z,8.34
2023-05-03T03:35:27.848Z,8.36
2023-05-03T03:37:54.824Z,8.37
2023-05-03T03:40:22.850Z,8.37
2023-05-03T03:42:51.855Z,8.35
2023-05-03T03:45:20.555Z,8.34
2023-05-03T03:47:47.560Z,8.34
2023-05-03T03:50:14.608Z,8.34
2023-05-03T03:52:41.659Z,8.32
2023-05-03T03:55:08.972Z,8.31
2023-05-03T03:57:36.096Z,8.30
2023-05-03T04:00:10.625Z,8.28
2023-05-03T04:02:44.623Z,8.29
2023-05-03T04:05:17.410Z,8.28
2023-05-03T04:07:45.956Z,8.28
2023-05-03T04:10:14.116Z,8.29
2023-05-03T04:12:41.390Z,8.27
2023-05-03T04:15:08.869Z,8.28
2023-05-03T04:17:38.722Z,8.27
2023-05-03T04:20:11.283Z,8.27
2023-05-03T04:22:40.502Z,8.24
2023-05-03T04:25:14.137Z,8.26
2023-05-03T04:27:44.874Z,8.23
2023-05-03T04:30:15.621Z,8.24
2023-05-03T04:32:44.870Z,8.24
2023-05-03T04:35:12.976Z,8.24
2023-05-03T04:37:44.195Z,8.26
2023-05-03T04:40:14.965Z,8.27
2023-05-03T04:42:46.368Z,8.24
2023-05-03T04:45:14.662Z,8.27
2023-05-03T04:47:41.964Z,8.30
2023-05-03T04:50:11.365Z,8.30
2023-05-03T04:52:41.415Z,8.32
2023-05-03T04:55:09.870Z,8.31
2023-05-03T04:57:38.309Z,8.33
2023-05-03T05:00:11.322Z,8.34
2023-05-03T05:02:43.831Z,8.33
2023-05-03T05:05:12.025Z,8.34
2023-05-03T05:07:38.781Z,8.35
2023-05-03T05:10:06.808Z,8.34
2023-05-03T05:12:33.676Z,8.33
2023-05-03T05:15:04.294Z,8.34
2023-05-03T05:17:31.942Z,8.36
2023-05-03T05:20:01.556Z,8.37
2023-05-03T05:22:29.707Z,8.37
2023-05-03T05:24:59.361Z,8.39
2023-05-03T05:27:27.762Z,8.41
2023-05-03T05:29:58.680Z,8.39
2023-05-03T05:32:26.072Z,8.41
2023-05-03T05:34:55.471Z,8.39
2023-05-03T05:37:25.965Z,8.38
2023-05-03T05:39:53.698Z,8.38
2023-05-03T05:42:22.913Z,8.37
2023-05-03T05:44:50.218Z,8.39
2023-05-03T05:47:17.266Z,8.38
2023-05-03T05:49:46.151Z,8.38
2023-05-03T05:52:13.531Z,8.39
2023-05-03T05:54:41.623Z,8.41
2023-05-03T05:57:08.939Z,8.42
2023-05-03T05:59:36.294Z,8.46
2023-05-03T06:02:03.370Z,8.43
2023-05-03T06:04:30.534Z,8.45
2023-05-03T06:06:58.021Z,8.46
2023-05-03T06:09:25.457Z,8.51
2023-05-03T06:11:57.295Z,8.51
2023-05-03T06:14:26.479Z,8.50
2023-05-03T06:16:54.104Z,8.51
2023-05-03T06:19:22.165Z,8.52
2023-05-03T06:21:49.545Z,8.53
2023-05-03T06:24:21.277Z,8.53
2023-05-03T06:26:51.064Z,8.53
2023-05-03T06:29:18.410Z,8.56
2023-05-03T06:31:45.602Z,8.56
2023-05-03T06:34:13.328Z,8.56
2023-05-03T06:36:43.083Z,8.57
2023-05-03T06:39:11.596Z,8.58
2023-05-03T06:41:38.805Z,8.59
2023-05-03T06:44:07.604Z,8.62
2023-05-03T06:46:34.953Z,8.62
2023-05-03T06:49:02.095Z,8.62
2023-05-03T06:51:30.679Z,8.63
2023-05-03T06:54:06.702Z,8.62
2023-05-03T06:56:36.674Z,8.65
2023-05-03T06:59:04.591Z,8.66
2023-05-03T07:01:32.601Z,8.66
2023-05-03T07:03:59.961Z,8.71
2023-05-03T07:06:27.201Z,8.82
2023-05-03T07:08:54.561Z,8.80
2023-05-03T07:11:25.498Z,8.78
2023-05-03T07:13:53.623Z,8.76
2023-05-03T07:16:21.375Z,8.76
2023-05-03T07:18:50.819Z,8.75
2023-05-03T07:21:17.821Z,8.78
2023-05-03T07:23:45.029Z,8.79
2023-05-03T07:26:12.218Z,8.80
2023-05-03T07:28:39.374Z,8.81
2023-05-03T07:31:06.592Z,8.81
2023-05-03T07:33:37.864Z,8.85
2023-05-03T07:36:05.847Z,8.83
2023-05-03T07:38:34.223Z,8.87
2023-05-03T07:41:01.290Z,8.89
2023-05-03T07:43:29.372Z,8.90
2023-05-03T07:45:56.592Z,8.91
2023-05-03T07:48:23.580Z,8.91
2023-05-03T07:50:52.638Z,8.92
2023-05-03T07:53:19.674Z,8.91
2023-05-03T07:55:46.761Z,8.91
2023-05-03T07:58:13.819Z,8.93
2023-05-03T08:00:41.082Z,8.95
2023-05-03T08:03:08.241Z,8.98
2023-05-03T08:05:36.835Z,8.97
2023-05-03T08:08:05.627Z,9.01
2023-05-03T08:10:37.880Z,9.00
2023-05-03T08:13:06.482Z,9.02
2023-05-03T08:15:34.014Z,9.02
2023-05-03T08:18:02.678Z,9.03
2023-05-03T08:20:36.908Z,9.04
2023-05-03T08:23:05.664Z,9.06
2023-05-03T08:25:33.158Z,9.06
2023-05-03T08:28:00.504Z,9.08
2023-05-03T08:30:27.530Z,9.08
2023-05-03T08:32:54.923Z,9.09
2023-05-03T08:35:22.301Z,9.09
2023-05-03T08:37:49.263Z,9.14
2023-05-03T08:40:16.794Z,9.12
2023-05-03T08:42:45.561Z,9.14
2023-05-03T08:45:15.843Z,9.16
2023-05-03T08:47:45.558Z,9.16
2023-05-03T08:50:16.178Z,9.19
2023-05-03T08:52:44.415Z,9.19
2023-05-03T08:55:11.742Z,9.20
2023-05-03T08:57:39.019Z,9.21
2023-05-03T09:00:10.601Z,9.23
2023-05-03T09:02:40.990Z,9.22
2023-05-03T09:05:17.469Z,9.25
2023-05-03T09:08:09.589Z,9.23
2023-05-03T09:10:41.732Z,9.26
2023-05-03T09:13:10.004Z,9.27
2023-05-03T09:15:37.374Z,9.29
2023-05-03T09:18:12.138Z,9.31
2023-05-03T09:20:41.898Z,9.35
2023-05-03T09:23:10.244Z,9.35
2023-05-03T09:25:47.921Z,9.37
2023-05-03T09:28:17.220Z,9.38
2023-05-03T09:30:45.349Z,9.39
2023-05-03T09:33:20.717Z,9.41
2023-05-03T09:36:13.996Z,9.42
2023-05-03T09:38:43.509Z,9.42
2023-05-03T09:41:11.165Z,9.42
2023-05-03T09:43:52.276Z,9.44
2023-05-03T09:46:20.628Z,9.45
2023-05-03T09:48:49.476Z,9.46
2023-05-03T09:51:16.947Z,9.47
2023-05-03T09:53:43.852Z,9.46
2023-05-03T09:56:14.918Z,9.46
2023-05-03T09:58:43.953Z,9.48
2023-05-03T10:01:11.310Z,9.49
2023-05-03T10:03:42.382Z,9.51
2023-05-03T10:06:19.373Z,9.51
2023-05-03T10:08:52.622Z,9.54
2023-05-03T10:11:22.071Z,9.56
2023-05-03T10:13:49.223Z,9.60
2023-05-03T10:16:22.487Z,9.60
2023-05-03T10:19:05.679Z,9.62
2023-05-03T10:22:09.417Z,9.64
2023-05-03T10:24:58.639Z,9.62
2023-05-03T10:27:26.444Z,9.64
2023-05-03T10:29:54.102Z,9.63
2023-05-03T10:32:34.194Z,9.66
2023-05-03T10:35:09.358Z,9.67
2023-05-03T10:37:42.454Z,9.69
2023-05-03T10:40:15.284Z,9.69
2023-05-03T10:42:57.425Z,9.70
2023-05-03T10:45:25.904Z,9.72
2023-05-03T10:48:21.070Z,9.75
2023-05-03T10:50:49.352Z,9.77
2023-05-03T10:53:32.130Z,9.75
2023-05-03T10:56:13.327Z,9.77
2023-05-03T10:58:48.785Z,9.79
2023-05-03T11:01:19.876Z,9.80
2023-05-03T11:03:50.324Z,9.81
2023-05-03T11:06:38.057Z,9.83
2023-05-03T11:09:09.553Z,9.86
2023-05-03T11:11:39.421Z,9.88
2023-05-03T11:14:08.470Z,9.89
2023-05-03T11:16:37.081Z,9.91
2023-05-03T11:19:04.361Z,9.95
2023-05-03T11:21:33.070Z,9.95
2023-05-03T11:24:01.662Z,9.96
2023-05-03T11:26:28.807Z,9.99
2023-05-03T11:28:55.843Z,10.01
2023-05-03T11:31:23.969Z,10.03
2023-05-03T11:33:51.452Z,10.04
2023-05-03T11:36:18.635Z,10.04
2023-05-03T11:38:45.665Z,10.05
2023-05-03T11:41:19.208Z,10.05
2023-05-03T11:43:54.880Z,10.04
2023-05-03T11:46:28.169Z,10.06
2023-05-03T11:48:56.550Z,10.07
2023-05-03T11:51:24.555Z,10.07
2023-05-03T11:53:52.538Z,10.06
2023-05-03T11:56:21.196Z,10.08
2023-05-03T11:58:59.706Z,10.09
2023-05-03T12:01:28.703Z,10.10
2023-05-03T12:04:02.803Z,10.11
2023-05-03T12:06:34.043Z,10.13
2023-05-03T12:09:06.237Z,10.16
2023-05-03T12:11:43.854Z,10.18
2023-05-03T12:14:12.023Z,10.20
2023-05-03T12:16:50.822Z,10.21
2023-05-03T12:19:32.835Z,10.24
2023-05-03T12:24:33.154Z,10.27
2023-05-03T12:27:02.894Z,10.29
2023-05-03T12:29:34.836Z,10.28
2023-05-03T12:32:04.400Z,10.30
2023-05-03T12:34:35.419Z,10.31
2023-05-03T12:37:05.760Z,10.33
2023-05-03T12:39:34.536Z,10.31
2023-05-03T12:42:08.107Z,10.33
2023-05-03T12:44:35.879Z,10.35
2023-05-03T12:47:04.391Z,10.37
2023-05-03T12:49:32.337Z,10.38
2023-05-03T12:52:34.680Z,10.38
2023-05-03T12:54:49.634Z,10.38
2023-05-03T12:57:22.910Z,10.40
2023-05-03T12:59:55.234Z,10.42
2023-05-03T13:05:00.504Z,10.48
2023-05-03T13:07:31.735Z,10.49
2023-05-03T13:12:31.056Z,10.52
2023-05-03T13:14:58.334Z,10.52
2023-05-03T13:17:26.291Z,10.53
2023-05-03T13:19:53.411Z,10.51
2023-05-03T13:22:20.776Z,10.54
2023-05-03T13:24:48.067Z,10.52
2023-05-03T13:27:16.162Z,10.53
2023-05-03T13:29:46.157Z,10.54
2023-05-03T13:32:14.833Z,10.54
2023-05-03T13:34:41.873Z,10.56
2023-05-03T13:37:08.976Z,10.58
2023-05-03T13:39:36.101Z,10.59
2023-05-03T13:42:03.595Z,10.58
2023-05-03T13:44:30.513Z,10.59
2023-05-03T13:46:57.561Z,10.60
2023-05-03T13:49:25.642Z,10.62
2023-05-03T13:51:52.937Z,10.60
2023-05-03T13:54:20.059Z,10.59
2023-05-03T13:56:49.570Z,10.60
2023-05-03T13:59:16.601Z,10.62
2023-05-03T14:01:43.809Z,10.60
2023-05-03T14:04:11.139Z,10.60
2023-05-03T14:06:41.133Z,10.59
2023-05-03T14:09:09.705Z,10.60
2023-05-03T14:11:38.163Z,10.60
2023-05-03T14:14:05.239Z,10.60
2023-05-03T14:19:03.659Z,10.65
2023-05-03T14:21:31.959Z,10.65
2023-05-03T14:23:59.299Z,10.67
2023-05-03T14:26:26.868Z,10.68
2023-05-03T14:28:54.613Z,10.69
2023-05-03T14:31:23.260Z,10.71
2023-05-03T14:33:50.416Z,10.73
2023-05-03T14:36:17.638Z,10.70
2023-05-03T14:38:45.159Z,10.70
2023-05-03T14:41:14.663Z,10.71
2023-05-03T14:43:41.785Z,10.72
2023-05-03T14:46:10.117Z,10.71
2023-05-03T14:48:38.316Z,10.73
2023-05-03T14:51:05.762Z,10.72
2023-05-03T14:53:33.030Z,10.74
2023-05-03T14:56:02.340Z,10.75
2023-05-03T14:58:29.383Z,10.77
2023-05-03T15:01:00.009Z,10.77
2023-05-03T15:03:27.637Z,10.77
2023-05-03T15:05:54.702Z,10.79
2023-05-03T15:08:22.032Z,10.79
2023-05-03T15:10:49.215Z,10.78
2023-05-03T15:13:16.980Z,10.78
2023-05-03T15:15:46.061Z,10.78
2023-05-03T15:18:14.750Z,10.78
2023-05-03T15:20:41.757Z,10.75
2023-05-03T15:23:09.105Z,10.77
2023-05-03T15:25:37.784Z,10.77
2023-05-03T15:28:04.927Z,10.79
2023-05-03T15:30:33.093Z,10.75
2023-05-03T15:33:01.157Z,10.74
2023-05-03T15:35:28.245Z,10.75
2023-05-03T15:37:55.379Z,10.78
2023-05-03T15:40:25.146Z,10.77
2023-05-03T15:42:53.933Z,10.78
2023-05-03T15:45:23.253Z,10.78
2023-05-03T15:47:50.565Z,10.78
2023-05-03T15:50:17.917Z,10.78
2023-05-03T15:52:46.785Z,10.79
2023-05-03T15:55:15.793Z,10.83
2023-05-03T15:57:43.290Z,10.79
2023-05-03T16:00:12.548Z,10.74
2023-05-03T16:02:42.482Z,10.79
2023-05-03T16:05:11.317Z,10.79
2023-05-03T16:07:38.559Z,10.75
2023-05-03T16:10:06.682Z,10.75
2023-05-03T16:12:34.092Z,10.74
2023-05-03T16:15:01.233Z,10.75
2023-05-03T16:17:28.451Z,10.73
2023-05-03T16:19:55.593Z,10.71
2023-05-03T16:22:22.840Z,10.71
2023-05-03T16:24:50.877Z,10.73
2023-05-03T16:27:19.496Z,10.75
2023-05-03T16:29:46.871Z,10.74
2023-05-03T16:32:14.178Z,10.74
2023-05-03T16:34:41.336Z,10.78
2023-05-03T16:37:08.405Z,10.77
2023-05-03T16:39:35.353Z,10.77
2023-05-03T16:42:05.457Z,10.86
2023-05-03T16:44:32.551Z,10.81
2023-05-03T16:46:59.550Z,10.83
2023-05-03T16:49:27.028Z,10.87
2023-05-03T16:51:53.874Z,10.87
2023-05-03T16:54:24.382Z,10.86
2023-05-03T16:56:52.371Z,10.85
2023-05-03T16:59:19.608Z,10.82
2023-05-03T17:01:46.762Z,10.81
2023-05-03T17:04:14.765Z,10.79
2023-05-03T17:06:41.868Z,10.80
2023-05-03T17:09:10.348Z,10.81
2023-05-03T17:11:37.579Z,10.81
2023-05-03T17:14:04.788Z,10.79
2023-05-03T17:16:32.214Z,10.77
2023-05-03T17:18:59.374Z,10.78
2023-05-03T17:21:27.524Z,10.77
2023-05-03T17:23:54.582Z,10.77
2023-05-03T17:26:21.577Z,10.74
2023-05-03T17:28:48.704Z,10.73
2023-05-03T17:31:15.719Z,10.73
2023-05-03T17:33:42.862Z,10.73
2023-05-03T17:36:09.821Z,10.74
2023-05-03T17:38:37.119Z,10.69
2023-05-03T17:41:08.118Z,10.71
2023-05-03T17:43:39.073Z,10.69
2023-05-03T17:46:11.323Z,10.72
2023-05-03T17:48:43.475Z,10.70
2023-05-03T17:51:13.670Z,10.71
2023-05-03T17:53:43.504Z,10.73
2023-05-03T17:56:16.082Z,10.70
2023-05-03T17:58:45.640Z,10.70
2023-05-03T18:01:13.764Z,10.69
2023-05-03T18:03:43.916Z,10.69
2023-05-03T18:06:13.480Z,10.70
2023-05-03T18:08:41.570Z,10.67
2023-05-03T18:11:09.410Z,10.67
2023-05-03T18:13:36.848Z,10.67
2023-05-03T18:16:08.415Z,10.66
2023-05-03T18:18:35.624Z,10.68
2023-05-03T18:21:04.844Z,10.66
2023-05-03T18:23:32.743Z,10.66
2023-05-03T18:26:00.758Z,10.65
2023-05-03T18:28:28.055Z,10.64
2023-05-03T18:30:57.718Z,10.65
2023-05-03T18:33:25.222Z,10.64
2023-05-03T18:35:53.717Z,10.63
2023-05-03T18:38:23.375Z,10.63
2023-05-03T18:40:50.733Z,10.65
2023-05-03T18:43:18.148Z,10.67
2023-05-03T18:45:45.140Z,10.65
2023-05-03T18:48:12.342Z,10.65
2023-05-03T18:50:39.823Z,10.64
2023-05-03T18:53:07.011Z,10.62
2023-05-03T18:55:34.084Z,10.63
2023-05-03T18:58:02.247Z,10.60
2023-05-03T19:00:29.748Z,10.60
2023-05-03T19:02:57.078Z,10.60
2023-05-03T19:05:24.169Z,10.60
2023-05-03T19:07:51.377Z,10.62
2023-05-03T19:10:19.971Z,10.63
2023-05-03T19:12:47.144Z,10.64
2023-05-03T19:15:14.239Z,10.64
2023-05-03T19:17:42.197Z,10.62
2023-05-03T19:20:10.512Z,10.60
2023-05-03T19:22:37.962Z,10.59
2023-05-03T19:25:07.362Z,10.59
2023-05-03T19:27:34.537Z,10.62
2023-05-03T19:30:01.530Z,10.60
2023-05-03T19:32:28.725Z,10.58
2023-05-03T19:34:55.996Z,10.59
2023-05-03T19:37:23.087Z,10.59
2023-05-03T19:39:49.947Z,10.57
2023-05-03T19:42:17.570Z,10.58
2023-05-03T19:44:44.412Z,10.57
2023-05-03T19:47:11.618Z,10.57
2023-05-03T19:49:38.679Z,10.57
2023-05-03T19:52:06.223Z,10.55
2023-05-03T19:54:33.357Z,10.51
2023-05-03T19:57:07.699Z,10.50
2023-05-03T19:59:35.002Z,10.50
2023-05-03T20:02:02.185Z,10.50
2023-05-03T20:04:29.286Z,10.50
2023-05-03T20:06:57.449Z,10.53
2023-05-03T20:09:24.554Z,10.52
2023-05-03T20:11:58.926Z,10.52
2023-05-03T20:14:29.275Z,10.51
2023-05-03T20:16:57.314Z,10.51
2023-05-03T20:19:27.484Z,10.52
2023-05-03T20:21:54.499Z,10.49
2023-05-03T20:24:22.221Z,10.50
2023-05-03T20:26:49.389Z,10.49
2023-05-03T20:29:16.302Z,10.49
2023-05-03T20:31:44.802Z,10.49
2023-05-03T20:34:12.768Z,10.49
2023-05-03T20:36:39.740Z,10.48
2023-05-03T20:39:06.701Z,10.48
2023-05-03T20:41:33.828Z,10.46
2023-05-03T20:44:00.908Z,10.46
2023-05-03T20:46:28.132Z,10.49
2023-05-03T20:48:56.205Z,10.45
2023-05-03T20:51:23.737Z,10.45
2023-05-03T20:53:50.964Z,10.46
2023-05-03T20:56:18.153Z,10.45
2023-05-03T20:58:45.889Z,10.44
2023-05-03T21:01:14.499Z,10.45
2023-05-03T21:03:41.694Z,10.46
2023-05-03T21:06:08.939Z,10.48
2023-05-03T21:08:36.156Z,10.46
2023-05-03T21:11:04.318Z,10.49
2023-05-03T21:13:31.243Z,10.45
2023-05-03T21:15:59.651Z,10.45
2023-05-03T21:18:27.341Z,10.42
2023-05-03T21:20:54.767Z,10.40
2023-05-03T21:23:21.787Z,10.41
2023-05-03T21:25:48.982Z,10.41
2023-05-03T21:28:15.995Z,10.39
2023-05-03T21:30:43.983Z,10.39
2023-05-03T21:33:11.002Z,10.41
2023-05-03T21:35:38.229Z,10.38
2023-05-03T21:38:05.368Z,10.39
2023-05-03T21:40:33.206Z,10.37
2023-05-03T21:43:01.644Z,10.35
2023-05-03T21:45:29.076Z,10.35
2023-05-03T21:47:56.091Z,10.35
2023-05-03T21:50:23.741Z,10.36
2023-05-03T21:52:50.678Z,10.34
2023-05-03T21:55:18.055Z,10.33
2023-05-03T21:57:45.097Z,10.34
2023-05-03T22:00:19.901Z,10.34
2023-05-03T22:02:47.770Z,10.34
2023-05-03T22:05:14.796Z,10.34
2023-05-03T22:07:41.991Z,10.36
2023-05-03T22:10:09.760Z,10.33
2023-05-03T22:12:37.048Z,10.30
2023-05-03T22:15:06.407Z,10.29
2023-05-03T22:17:34.104Z,10.28
2023-05-03T22:20:01.105Z,10.29
2023-05-03T22:22:28.286Z,10.27
2023-05-03T22:24:55.744Z,10.27
2023-05-03T22:27:23.754Z,10.26
2023-05-03T22:29:51.354Z,10.27
2023-05-03T22:32:18.678Z,10.27
2023-05-03T22:34:46.418Z,10.27
2023-05-03T22:37:13.579Z,10.28
2023-05-03T22:39:40.629Z,10.28
2023-05-03T22:42:09.349Z,10.26
2023-05-03T22:44:37.296Z,10.25
2023-05-03T22:47:04.469Z,10.22
2023-05-03T22:49:31.648Z,10.22
2023-05-03T22:51:58.655Z,10.22
2023-05-03T22:54:26.204Z,10.22
2023-05-03T22:56:53.332Z,10.22
2023-05-03T22:59:22.853Z,10.22
2023-05-03T23:01:49.992Z,10.21
2023-05-03T23:04:17.039Z,10.20
2023-05-03T23:06:44.648Z,10.23
2023-05-03T23:09:11.906Z,10.23
2023-05-03T23:11:39.405Z,10.20
2023-05-03T23:14:06.403Z,10.19
2023-05-03T23:16:33.576Z,10.20
2023-05-03T23:19:00.566Z,10.19
2023-05-03T23:21:27.735Z,10.16
2023-05-03T23:23:54.868Z,10.16
2023-05-03T23:26:22.046Z,10.16
2023-05-03T23:28:49.741Z,10.15
2023-05-03T23:31:17.285Z,10.15
2023-05-03T23:33:44.791Z,10.15
2023-05-03T23:36:12.486Z,10.14
2023-05-03T23:38:39.575Z,10.16
2023-05-03T23:41:08.899Z,10.14
2023-05-03T23:43:35.954Z,10.14
2023-05-03T23:46:03.145Z,10.14
2023-05-03T23:48:31.620Z,10.15
2023-05-03T23:50:58.744Z,10.14
2023-05-03T23:53:25.802Z,10.11
2023-05-03T23:55:53.142Z,10.13
2023-05-03T23:58:20.231Z,10.15
